Terminal Aerodrome Forecast
Issued by NWS

Home | Current Version | Previous Version | Text Only | Print | Product List | Glossary On
Versions: 1 2 3 4 5 6 7 8 9 10 11 12
000
FTUS45 KABQ 201700
TAFFMN
TAF
KFMN 201736Z 2018/2118 VRB06KT P6SM SKC
     FM202230 21010KT P6SM SCT100
     FM210400 11012KT P6SM VCSH BKN080
     FM210800 09009KT P6SM BKN120=

USA.gov is the U.S. government's official web portal to all federal, state and local government web resources and services.